sensor_id;sensor_type;location;lat;lon;timestamp;pressure;altitude;pressure_sealevel;temperature;humidity
6506;BME280;3286;49.858;8.768;2022-08-19T00:01:17;98823.19;;;23.39;52.00
6506;BME280;3286;49.858;8.768;2022-08-19T00:03:44;98809.44;;;22.95;52.96
6506;BME280;3286;49.858;8.768;2022-08-19T00:06:10;98812.34;;;23.22;52.30
6506;BME280;3286;49.858;8.768;2022-08-19T00:08:39;98810.72;;;22.75;53.54
6506;BME280;3286;49.858;8.768;2022-08-19T00:11:05;98820.56;;;22.69;53.37
6506;BME280;3286;49.858;8.768;2022-08-19T00:13:32;98812.25;;;23.17;52.34
6506;BME280;3286;49.858;8.768;2022-08-19T00:16:00;98808.97;;;23.44;51.80
6506;BME280;3286;49.858;8.768;2022-08-19T00:18:27;98800.97;;;23.32;52.06
6506;BME280;3286;49.858;8.768;2022-08-19T00:20:54;98802.78;;;23.26;52.80
6506;BME280;3286;49.858;8.768;2022-08-19T00:23:20;98799.59;;;23.29;52.39
6506;BME280;3286;49.858;8.768;2022-08-19T00:25:48;98788.94;;;23.23;52.80
6506;BME280;3286;49.858;8.768;2022-08-19T00:28:16;98783.13;;;23.14;52.93
6506;BME280;3286;49.858;8.768;2022-08-19T00:30:42;98774.44;;;23.41;52.27
6506;BME280;3286;49.858;8.768;2022-08-19T00:33:09;98776.88;;;23.42;52.19
6506;BME280;3286;49.858;8.768;2022-08-19T00:35:36;98769.13;;;23.29;53.06
6506;BME280;3286;49.858;8.768;2022-08-19T00:38:04;98776.81;;;22.91;54.20
6506;BME280;3286;49.858;8.768;2022-08-19T00:40:31;98777.56;;;22.75;54.02
6506;BME280;3286;49.858;8.768;2022-08-19T00:42:59;98771.25;;;22.98;53.29
6506;BME280;3286;49.858;8.768;2022-08-19T00:45:27;98773.16;;;23.14;52.42
6506;BME280;3286;49.858;8.768;2022-08-19T00:47:55;98761.75;;;23.24;51.88
6506;BME280;3286;49.858;8.768;2022-08-19T00:50:22;98758.88;;;23.14;51.09
6506;BME280;3286;49.858;8.768;2022-08-19T00:52:50;98749.47;;;22.99;51.16
6506;BME280;3286;49.858;8.768;2022-08-19T00:55:19;98746.16;;;23.09;50.69
6506;BME280;3286;49.858;8.768;2022-08-19T00:57:50;98735.06;;;23.40;49.84
6506;BME280;3286;49.858;8.768;2022-08-19T01:00:22;98740.19;;;23.07;50.85
6506;BME280;3286;49.858;8.768;2022-08-19T01:02:49;98754.13;;;22.87;51.44
6506;BME280;3286;49.858;8.768;2022-08-19T01:05:20;98749.91;;;23.08;51.24
6506;BME280;3286;49.858;8.768;2022-08-19T01:07:48;98757.00;;;23.14;50.64
6506;BME280;3286;49.858;8.768;2022-08-19T01:10:19;98763.88;;;23.56;49.59
6506;BME280;3286;49.858;8.768;2022-08-19T01:12:47;98767.72;;;23.43;49.83
6506;BME280;3286;49.858;8.768;2022-08-19T01:15:22;98767.38;;;23.23;50.54
6506;BME280;3286;49.858;8.768;2022-08-19T01:17:50;98758.22;;;23.24;50.61
6506;BME280;3286;49.858;8.768;2022-08-19T01:20:20;98760.34;;;23.22;50.47
6506;BME280;3286;49.858;8.768;2022-08-19T01:22:51;98747.59;;;23.68;49.57
6506;BME280;3286;49.858;8.768;2022-08-19T01:25:26;98749.19;;;23.30;50.57
6506;BME280;3286;49.858;8.768;2022-08-19T01:27:54;98740.97;;;23.37;50.26
6506;BME280;3286;49.858;8.768;2022-08-19T01:30:35;98743.13;;;23.57;49.68
6506;BME280;3286;49.858;8.768;2022-08-19T01:33:02;98733.47;;;23.78;48.90
6506;BME280;3286;49.858;8.768;2022-08-19T01:35:31;98739.56;;;23.34;50.31
6506;BME280;3286;49.858;8.768;2022-08-19T01:38:01;98741.53;;;23.39;49.96
6506;BME280;3286;49.858;8.768;2022-08-19T01:40:34;98743.34;;;23.04;50.82
6506;BME280;3286;49.858;8.768;2022-08-19T01:43:02;98754.69;;;23.23;50.08
6506;BME280;3286;49.858;8.768;2022-08-19T01:45:31;98759.41;;;23.28;49.92
6506;BME280;3286;49.858;8.768;2022-08-19T01:47:59;98756.03;;;23.21;50.13
6506;BME280;3286;49.858;8.768;2022-08-19T01:50:26;98763.66;;;23.41;49.68
6506;BME280;3286;49.858;8.768;2022-08-19T01:52:53;98757.72;;;23.10;50.73
6506;BME280;3286;49.858;8.768;2022-08-19T01:55:21;98763.16;;;23.27;49.91
6506;BME280;3286;49.858;8.768;2022-08-19T01:57:52;98769.25;;;23.05;50.77
6506;BME280;3286;49.858;8.768;2022-08-19T02:00:23;98769.81;;;23.07;50.95
6506;BME280;3286;49.858;8.768;2022-08-19T02:02:50;98765.75;;;23.22;50.22
6506;BME280;3286;49.858;8.768;2022-08-19T02:05:17;98768.34;;;23.17;50.40
6506;BME280;3286;49.858;8.768;2022-08-19T02:07:46;98772.31;;;23.43;49.72
6506;BME280;3286;49.858;8.768;2022-08-19T02:10:16;98782.53;;;23.12;50.25
6506;BME280;3286;49.858;8.768;2022-08-19T02:12:44;98781.38;;;23.37;50.08
6506;BME280;3286;49.858;8.768;2022-08-19T02:15:11;98774.72;;;23.62;49.47
6506;BME280;3286;49.858;8.768;2022-08-19T02:17:40;98776.78;;;23.54;49.55
6506;BME280;3286;49.858;8.768;2022-08-19T02:20:07;98781.13;;;23.38;49.84
6506;BME280;3286;49.858;8.768;2022-08-19T02:22:34;98774.53;;;23.17;50.25
6506;BME280;3286;49.858;8.768;2022-08-19T02:25:01;98787.44;;;23.15;50.46
6506;BME280;3286;49.858;8.768;2022-08-19T02:27:29;98786.50;;;23.38;49.69
6506;BME280;3286;49.858;8.768;2022-08-19T02:29:57;98789.28;;;23.43;49.79
6506;BME280;3286;49.858;8.768;2022-08-19T02:32:24;98789.56;;;23.13;50.90
6506;BME280;3286;49.858;8.768;2022-08-19T02:34:51;98782.38;;;23.31;50.34
6506;BME280;3286;49.858;8.768;2022-08-19T02:37:17;98773.53;;;23.52;49.92
6506;BME280;3286;49.858;8.768;2022-08-19T02:39:58;98769.34;;;23.62;50.05
6506;BME280;3286;49.858;8.768;2022-08-19T02:42:25;98766.69;;;23.84;49.30
6506;BME280;3286;49.858;8.768;2022-08-19T02:44:52;98769.50;;;23.21;50.26
6506;BME280;3286;49.858;8.768;2022-08-19T02:47:22;98773.28;;;23.54;49.73
6506;BME280;3286;49.858;8.768;2022-08-19T02:49:48;98781.75;;;23.46;49.78
6506;BME280;3286;49.858;8.768;2022-08-19T02:52:15;98771.25;;;23.44;49.58
6506;BME280;3286;49.858;8.768;2022-08-19T02:54:42;98780.31;;;23.38;49.44
6506;BME280;3286;49.858;8.768;2022-08-19T02:57:09;98771.97;;;23.39;49.58
6506;BME280;3286;49.858;8.768;2022-08-19T02:59:35;98771.28;;;23.15;50.46
6506;BME280;3286;49.858;8.768;2022-08-19T03:02:02;98767.63;;;23.55;50.01
6506;BME280;3286;49.858;8.768;2022-08-19T03:04:31;98773.44;;;23.30;50.42
6506;BME280;3286;49.858;8.768;2022-08-19T03:06:57;98778.16;;;23.23;50.71
6506;BME280;3286;49.858;8.768;2022-08-19T03:09:24;98791.03;;;23.04;51.22
6506;BME280;3286;49.858;8.768;2022-08-19T03:11:50;98791.50;;;23.00;50.98
6506;BME280;3286;49.858;8.768;2022-08-19T03:14:17;98785.81;;;22.68;51.99
6506;BME280;3286;49.858;8.768;2022-08-19T03:16:46;98789.59;;;22.84;51.40
6506;BME280;3286;49.858;8.768;2022-08-19T03:19:15;98785.03;;;22.84;51.40
6506;BME280;3286;49.858;8.768;2022-08-19T03:21:44;98783.88;;;22.80;51.58
6506;BME280;3286;49.858;8.768;2022-08-19T03:24:11;98787.78;;;22.72;51.58
6506;BME280;3286;49.858;8.768;2022-08-19T03:26:40;98781.22;;;22.68;51.26
6506;BME280;3286;49.858;8.768;2022-08-19T03:29:07;98778.09;;;22.60;52.08
6506;BME280;3286;49.858;8.768;2022-08-19T03:31:34;98776.88;;;22.79;51.53
6506;BME280;3286;49.858;8.768;2022-08-19T03:34:01;98772.50;;;22.61;52.36
6506;BME280;3286;49.858;8.768;2022-08-19T03:36:27;98776.91;;;22.67;52.01
6506;BME280;3286;49.858;8.768;2022-08-19T03:38:58;98781.94;;;22.93;51.19
6506;BME280;3286;49.858;8.768;2022-08-19T03:41:27;98791.56;;;22.89;51.73
6506;BME280;3286;49.858;8.768;2022-08-19T03:43:55;98790.13;;;23.15;50.86
6506;BME280;3286;49.858;8.768;2022-08-19T03:46:25;98787.53;;;22.74;51.82
6506;BME280;3286;49.858;8.768;2022-08-19T03:48:53;98784.69;;;22.52;52.49
6506;BME280;3286;49.858;8.768;2022-08-19T03:51:22;98785.75;;;22.51;52.54
6506;BME280;3286;49.858;8.768;2022-08-19T03:53:50;98781.59;;;22.72;52.37
6506;BME280;3286;49.858;8.768;2022-08-19T03:56:18;98791.63;;;22.77;52.46
6506;BME280;3286;49.858;8.768;2022-08-19T03:58:45;98793.19;;;22.61;52.66
6506;BME280;3286;49.858;8.768;2022-08-19T04:01:17;98791.75;;;22.99;51.87
6506;BME280;3286;49.858;8.768;2022-08-19T04:03:46;98792.50;;;22.94;51.32
6506;BME280;3286;49.858;8.768;2022-08-19T04:06:15;98800.00;;;22.39;52.95
6506;BME280;3286;49.858;8.768;2022-08-19T04:08:44;98804.19;;;22.71;51.95
6506;BME280;3286;49.858;8.768;2022-08-19T04:11:13;98802.28;;;22.71;52.16
6506;BME280;3286;49.858;8.768;2022-08-19T04:13:41;98810.69;;;22.87;52.10
6506;BME280;3286;49.858;8.768;2022-08-19T04:16:08;98809.06;;;23.03;51.22
6506;BME280;3286;49.858;8.768;2022-08-19T04:18:36;98808.22;;;22.45;52.83
6506;BME280;3286;49.858;8.768;2022-08-19T04:21:04;98807.94;;;22.70;52.06
6506;BME280;3286;49.858;8.768;2022-08-19T04:23:31;98808.59;;;22.77;52.37
6506;BME280;3286;49.858;8.768;2022-08-19T04:25:58;98806.56;;;22.55;53.42
6506;BME280;3286;49.858;8.768;2022-08-19T04:28:25;98798.34;;;22.62;52.39
6506;BME280;3286;49.858;8.768;2022-08-19T04:30:54;98807.50;;;22.49;53.14
6506;BME280;3286;49.858;8.768;2022-08-19T04:33:23;98802.38;;;22.77;52.29
6506;BME280;3286;49.858;8.768;2022-08-19T04:35:51;98809.25;;;22.55;53.18
6506;BME280;3286;49.858;8.768;2022-08-19T04:38:20;98807.53;;;22.78;52.63
6506;BME280;3286;49.858;8.768;2022-08-19T04:40:50;98795.28;;;22.70;53.09
6506;BME280;3286;49.858;8.768;2022-08-19T04:43:36;98794.13;;;22.66;53.14
6506;BME280;3286;49.858;8.768;2022-08-19T04:46:08;98793.50;;;23.22;51.34
6506;BME280;3286;49.858;8.768;2022-08-19T04:48:35;98798.84;;;22.88;51.94
6506;BME280;3286;49.858;8.768;2022-08-19T04:51:06;98809.16;;;23.08;51.67
6506;BME280;3286;49.858;8.768;2022-08-19T04:53:35;98804.56;;;23.38;51.25
6506;BME280;3286;49.858;8.768;2022-08-19T04:56:06;98818.06;;;23.09;51.73
6506;BME280;3286;49.858;8.768;2022-08-19T04:58:33;98812.44;;;22.81;52.62
6506;BME280;3286;49.858;8.768;2022-08-19T05:01:00;98813.09;;;23.18;51.32
6506;BME280;3286;49.858;8.768;2022-08-19T05:03:29;98815.50;;;23.31;50.97
6506;BME280;3286;49.858;8.768;2022-08-19T05:06:04;98813.66;;;23.20;51.41
6506;BME280;3286;49.858;8.768;2022-08-19T05:08:33;98813.88;;;23.30;52.02
6506;BME280;3286;49.858;8.768;2022-08-19T05:11:00;98814.69;;;23.31;51.53
6506;BME280;3286;49.858;8.768;2022-08-19T05:13:27;98808.03;;;23.21;51.33
6506;BME280;3286;49.858;8.768;2022-08-19T05:15:56;98817.06;;;23.15;51.58
6506;BME280;3286;49.858;8.768;2022-08-19T05:18:23;98815.00;;;23.34;51.17
6506;BME280;3286;49.858;8.768;2022-08-19T05:21:09;98808.81;;;23.51;50.44
6506;BME280;3286;49.858;8.768;2022-08-19T05:23:54;98821.66;;;23.14;51.35
6506;BME280;3286;49.858;8.768;2022-08-19T05:26:21;98818.84;;;23.38;51.04
6506;BME280;3286;49.858;8.768;2022-08-19T05:28:48;98813.97;;;23.52;50.87
6506;BME280;3286;49.858;8.768;2022-08-19T05:31:14;98818.75;;;23.84;50.02
6506;BME280;3286;49.858;8.768;2022-08-19T05:33:41;98824.91;;;23.46;50.61
6506;BME280;3286;49.858;8.768;2022-08-19T05:36:09;98821.56;;;23.55;50.38
6506;BME280;3286;49.858;8.768;2022-08-19T05:38:36;98830.47;;;23.39;50.99
6506;BME280;3286;49.858;8.768;2022-08-19T05:41:07;98820.69;;;23.50;50.67
6506;BME280;3286;49.858;8.768;2022-08-19T05:43:33;98829.72;;;23.43;51.04
6506;BME280;3286;49.858;8.768;2022-08-19T05:46:00;98832.41;;;23.43;50.64
6506;BME280;3286;49.858;8.768;2022-08-19T05:48:27;98826.38;;;23.53;50.83
6506;BME280;3286;49.858;8.768;2022-08-19T05:50:54;98829.56;;;23.33;51.16
6506;BME280;3286;49.858;8.768;2022-08-19T05:53:22;98835.53;;;23.69;50.17
6506;BME280;3286;49.858;8.768;2022-08-19T05:55:48;98841.00;;;23.57;50.67
6506;BME280;3286;49.858;8.768;2022-08-19T05:58:15;98842.88;;;23.74;50.44
6506;BME280;3286;49.858;8.768;2022-08-19T06:00:43;98837.00;;;23.60;50.74
6506;BME280;3286;49.858;8.768;2022-08-19T06:03:10;98847.78;;;23.77;49.98
6506;BME280;3286;49.858;8.768;2022-08-19T06:05:37;98851.94;;;24.02;49.43
6506;BME280;3286;49.858;8.768;2022-08-19T06:08:03;98855.47;;;24.02;49.42
6506;BME280;3286;49.858;8.768;2022-08-19T06:10:34;98857.88;;;24.21;49.30
6506;BME280;3286;49.858;8.768;2022-08-19T06:13:02;98856.22;;;24.37;48.92
6506;BME280;3286;49.858;8.768;2022-08-19T06:15:31;98869.78;;;24.42;48.92
6506;BME280;3286;49.858;8.768;2022-08-19T06:17:57;98872.22;;;24.22;49.32
6506;BME280;3286;49.858;8.768;2022-08-19T06:20:24;98876.59;;;24.28;48.97
6506;BME280;3286;49.858;8.768;2022-08-19T06:22:51;98878.69;;;24.43;48.56
6506;BME280;3286;49.858;8.768;2022-08-19T06:25:19;98873.56;;;24.24;49.37
6506;BME280;3286;49.858;8.768;2022-08-19T06:27:47;98876.28;;;24.24;49.17
6506;BME280;3286;49.858;8.768;2022-08-19T06:30:14;98888.81;;;24.30;49.13
6506;BME280;3286;49.858;8.768;2022-08-19T06:32:41;98885.41;;;24.63;48.99
6506;BME280;3286;49.858;8.768;2022-08-19T06:35:08;98887.31;;;24.40;49.21
6506;BME280;3286;49.858;8.768;2022-08-19T06:37:36;98887.03;;;24.81;48.14
6506;BME280;3286;49.858;8.768;2022-08-19T06:40:03;98879.53;;;24.88;47.85
6506;BME280;3286;49.858;8.768;2022-08-19T06:42:30;98892.31;;;24.31;48.99
6506;BME280;3286;49.858;8.768;2022-08-19T06:44:58;98899.97;;;24.39;48.83
6506;BME280;3286;49.858;8.768;2022-08-19T06:47:24;98906.66;;;24.54;48.60
6506;BME280;3286;49.858;8.768;2022-08-19T06:49:53;98906.84;;;24.69;47.98
6506;BME280;3286;49.858;8.768;2022-08-19T06:52:20;98908.69;;;24.86;47.84
6506;BME280;3286;49.858;8.768;2022-08-19T06:54:48;98906.69;;;24.98;47.32
6506;BME280;3286;49.858;8.768;2022-08-19T06:57:15;98913.78;;;25.05;47.36
6506;BME280;3286;49.858;8.768;2022-08-19T06:59:42;98914.41;;;25.12;47.38
6506;BME280;3286;49.858;8.768;2022-08-19T07:02:10;98912.13;;;24.59;48.75
6506;BME280;3286;49.858;8.768;2022-08-19T07:04:37;98913.22;;;25.02;47.71
6506;BME280;3286;49.858;8.768;2022-08-19T07:07:06;98921.75;;;25.16;47.39
6506;BME280;3286;49.858;8.768;2022-08-19T07:09:35;98921.44;;;24.91;47.51
6506;BME280;3286;49.858;8.768;2022-08-19T07:12:04;98925.94;;;25.07;47.80
6506;BME280;3286;49.858;8.768;2022-08-19T07:14:33;98920.06;;;24.88;47.42
6506;BME280;3286;49.858;8.768;2022-08-19T07:17:03;98922.03;;;25.20;46.72
6506;BME280;3286;49.858;8.768;2022-08-19T07:19:32;98908.03;;;25.23;47.01
6506;BME280;3286;49.858;8.768;2022-08-19T07:22:01;98917.00;;;25.01;47.86
6506;BME280;3286;49.858;8.768;2022-08-19T07:24:29;98918.63;;;25.30;47.28
6506;BME280;3286;49.858;8.768;2022-08-19T07:26:58;98915.53;;;25.16;47.88
6506;BME280;3286;49.858;8.768;2022-08-19T07:29:28;98919.34;;;25.20;47.57
6506;BME280;3286;49.858;8.768;2022-08-19T07:31:56;98914.13;;;25.36;46.98
6506;BME280;3286;49.858;8.768;2022-08-19T07:34:24;98916.66;;;25.48;47.38
6506;BME280;3286;49.858;8.768;2022-08-19T07:36:53;98914.63;;;25.33;47.61
6506;BME280;3286;49.858;8.768;2022-08-19T07:39:23;98921.59;;;25.83;46.56
6506;BME280;3286;49.858;8.768;2022-08-19T07:41:50;98913.56;;;25.34;46.91
6506;BME280;3286;49.858;8.768;2022-08-19T07:44:17;98917.81;;;25.52;46.77
6506;BME280;3286;49.858;8.768;2022-08-19T07:46:46;98919.06;;;25.16;47.14
6506;BME280;3286;49.858;8.768;2022-08-19T07:49:14;98925.63;;;25.26;47.34
6506;BME280;3286;49.858;8.768;2022-08-19T07:51:45;98922.78;;;25.65;47.08
6506;BME280;3286;49.858;8.768;2022-08-19T07:54:13;98921.06;;;25.86;46.72
6506;BME280;3286;49.858;8.768;2022-08-19T07:56:40;98921.94;;;25.37;47.11
6506;BME280;3286;49.858;8.768;2022-08-19T07:59:07;98920.78;;;25.83;45.98
6506;BME280;3286;49.858;8.768;2022-08-19T08:01:35;98917.75;;;26.12;44.99
6506;BME280;3286;49.858;8.768;2022-08-19T08:04:02;98923.38;;;26.38;45.04
6506;BME280;3286;49.858;8.768;2022-08-19T08:06:46;98922.19;;;25.91;45.02
6506;BME280;3286;49.858;8.768;2022-08-19T08:09:35;98916.19;;;25.51;46.05
6506;BME280;3286;49.858;8.768;2022-08-19T08:12:06;98916.47;;;25.05;46.27
6506;BME280;3286;49.858;8.768;2022-08-19T08:14:35;98915.56;;;25.71;45.14
6506;BME280;3286;49.858;8.768;2022-08-19T08:17:04;98911.78;;;25.72;45.98
6506;BME280;3286;49.858;8.768;2022-08-19T08:19:31;98915.94;;;26.17;44.30
6506;BME280;3286;49.858;8.768;2022-08-19T08:22:00;98918.56;;;25.80;44.59
6506;BME280;3286;49.858;8.768;2022-08-19T08:24:29;98922.84;;;26.08;44.21
6506;BME280;3286;49.858;8.768;2022-08-19T08:26:59;98912.78;;;26.36;43.47
6506;BME280;3286;49.858;8.768;2022-08-19T08:29:26;98904.06;;;26.82;42.27
6506;BME280;3286;49.858;8.768;2022-08-19T08:31:54;98910.94;;;27.00;42.03
6506;BME280;3286;49.858;8.768;2022-08-19T08:34:22;98908.25;;;26.47;42.70
6506;BME280;3286;49.858;8.768;2022-08-19T08:36:49;98908.94;;;26.75;41.68
6506;BME280;3286;49.858;8.768;2022-08-19T08:39:19;98910.41;;;26.98;40.71
6506;BME280;3286;49.858;8.768;2022-08-19T08:41:51;98915.28;;;26.96;40.16
6506;BME280;3286;49.858;8.768;2022-08-19T08:44:23;98913.66;;;26.47;41.64
6506;BME280;3286;49.858;8.768;2022-08-19T08:46:56;98903.53;;;26.80;41.61
6506;BME280;3286;49.858;8.768;2022-08-19T08:49:32;98901.97;;;26.89;41.29
6506;BME280;3286;49.858;8.768;2022-08-19T08:52:03;98908.66;;;26.28;41.13
6506;BME280;3286;49.858;8.768;2022-08-19T08:54:35;98909.72;;;25.52;42.45
6506;BME280;3286;49.858;8.768;2022-08-19T08:57:09;98911.25;;;24.98;43.70
6506;BME280;3286;49.858;8.768;2022-08-19T08:59:40;98908.91;;;25.56;42.24
6506;BME280;3286;49.858;8.768;2022-08-19T09:02:07;98907.13;;;26.05;41.75
6506;BME280;3286;49.858;8.768;2022-08-19T09:04:35;98909.38;;;25.48;41.76
6506;BME280;3286;49.858;8.768;2022-08-19T09:07:14;98910.78;;;25.51;41.81
6506;BME280;3286;49.858;8.768;2022-08-19T09:09:49;98916.94;;;26.11;41.14
6506;BME280;3286;49.858;8.768;2022-08-19T09:12:22;98919.81;;;26.32;40.14
6506;BME280;3286;49.858;8.768;2022-08-19T09:14:56;98916.06;;;25.45;41.61
6506;BME280;3286;49.858;8.768;2022-08-19T09:17:27;98917.53;;;25.26;43.00
6506;BME280;3286;49.858;8.768;2022-08-19T09:19:58;98919.53;;;25.36;42.22
6506;BME280;3286;49.858;8.768;2022-08-19T09:22:29;98913.31;;;25.95;41.30
6506;BME280;3286;49.858;8.768;2022-08-19T09:24:56;98908.91;;;26.22;40.50
6506;BME280;3286;49.858;8.768;2022-08-19T09:27:24;98926.75;;;26.17;40.91
6506;BME280;3286;49.858;8.768;2022-08-19T09:29:53;98916.97;;;26.59;40.18
6506;BME280;3286;49.858;8.768;2022-08-19T09:32:20;98911.44;;;26.34;40.32
6506;BME280;3286;49.858;8.768;2022-08-19T09:34:48;98914.81;;;26.61;39.87
6506;BME280;3286;49.858;8.768;2022-08-19T09:37:14;98909.03;;;26.42;41.36
6506;BME280;3286;49.858;8.768;2022-08-19T09:39:41;98908.00;;;26.11;41.22
6506;BME280;3286;49.858;8.768;2022-08-19T09:42:09;98911.97;;;25.98;41.25
6506;BME280;3286;49.858;8.768;2022-08-19T09:44:39;98901.41;;;26.34;41.18
6506;BME280;3286;49.858;8.768;2022-08-19T09:47:08;98908.28;;;27.31;38.92
6506;BME280;3286;49.858;8.768;2022-08-19T09:49:35;98899.41;;;27.72;38.40
6506;BME280;3286;49.858;8.768;2022-08-19T09:52:05;98902.59;;;26.54;39.90
6506;BME280;3286;49.858;8.768;2022-08-19T09:54:33;98906.94;;;27.24;38.86
6506;BME280;3286;49.858;8.768;2022-08-19T09:57:00;98899.28;;;27.10;39.40
6506;BME280;3286;49.858;8.768;2022-08-19T09:59:27;98899.63;;;26.55;39.58
6506;BME280;3286;49.858;8.768;2022-08-19T10:01:54;98898.28;;;27.32;37.80
6506;BME280;3286;49.858;8.768;2022-08-19T10:04:22;98894.78;;;27.57;38.08
6506;BME280;3286;49.858;8.768;2022-08-19T10:07:09;98902.91;;;28.09;36.72
6506;BME280;3286;49.858;8.768;2022-08-19T10:09:36;98897.78;;;27.66;37.29
6506;BME280;3286;49.858;8.768;2022-08-19T10:12:04;98902.13;;;26.72;38.70
6506;BME280;3286;49.858;8.768;2022-08-19T10:14:31;98905.22;;;26.00;39.41
6506;BME280;3286;49.858;8.768;2022-08-19T10:16:58;98900.75;;;26.16;39.17
6506;BME280;3286;49.858;8.768;2022-08-19T10:19:26;98906.06;;;25.68;40.47
6506;BME280;3286;49.858;8.768;2022-08-19T10:21:55;98899.41;;;26.72;39.19
6506;BME280;3286;49.858;8.768;2022-08-19T10:24:22;98897.09;;;27.02;37.74
6506;BME280;3286;49.858;8.768;2022-08-19T10:26:50;98888.72;;;27.09;37.25
6506;BME280;3286;49.858;8.768;2022-08-19T10:29:17;98889.91;;;27.54;35.65
6506;BME280;3286;49.858;8.768;2022-08-19T10:31:43;98886.56;;;28.40;35.80
6506;BME280;3286;49.858;8.768;2022-08-19T10:34:11;98882.50;;;28.32;36.11
6506;BME280;3286;49.858;8.768;2022-08-19T10:36:40;98885.50;;;28.36;36.50
6506;BME280;3286;49.858;8.768;2022-08-19T10:39:08;98885.22;;;28.32;37.71
6506;BME280;3286;49.858;8.768;2022-08-19T10:41:37;98885.03;;;27.56;38.94
6506;BME280;3286;49.858;8.768;2022-08-19T10:44:07;98889.66;;;27.61;36.63
6506;BME280;3286;49.858;8.768;2022-08-19T10:46:37;98880.34;;;28.29;35.88
6506;BME280;3286;49.858;8.768;2022-08-19T10:49:06;98878.91;;;29.18;34.36
6506;BME280;3286;49.858;8.768;2022-08-19T10:51:32;98871.06;;;29.52;33.46
6506;BME280;3286;49.858;8.768;2022-08-19T10:54:19;98866.78;;;29.80;33.24
6506;BME280;3286;49.858;8.768;2022-08-19T10:56:46;98858.78;;;30.43;31.69
6506;BME280;3286;49.858;8.768;2022-08-19T10:59:20;98851.06;;;29.32;35.12
6506;BME280;3286;49.858;8.768;2022-08-19T11:01:47;98849.16;;;28.22;36.29
6506;BME280;3286;49.858;8.768;2022-08-19T11:04:15;98861.88;;;27.02;38.35
6506;BME280;3286;49.858;8.768;2022-08-19T11:06:43;98851.84;;;28.11;36.61
6506;BME280;3286;49.858;8.768;2022-08-19T11:09:11;98846.47;;;28.16;36.02
6506;BME280;3286;49.858;8.768;2022-08-19T11:11:39;98839.06;;;29.38;34.74
6506;BME280;3286;49.858;8.768;2022-08-19T11:14:08;98831.19;;;29.42;34.17
6506;BME280;3286;49.858;8.768;2022-08-19T11:16:41;98826.56;;;28.42;35.44
6506;BME280;3286;49.858;8.768;2022-08-19T11:19:10;98814.75;;;29.82;32.58
6506;BME280;3286;49.858;8.768;2022-08-19T11:21:40;98818.63;;;31.11;31.67
6506;BME280;3286;49.858;8.768;2022-08-19T11:24:13;98827.34;;;29.03;35.19
6506;BME280;3286;49.858;8.768;2022-08-19T11:26:42;98822.03;;;28.82;35.64
6506;BME280;3286;49.858;8.768;2022-08-19T11:29:12;98818.94;;;28.99;34.27
6506;BME280;3286;49.858;8.768;2022-08-19T11:31:42;98824.09;;;29.35;33.08
6506;BME280;3286;49.858;8.768;2022-08-19T11:34:11;98828.72;;;28.95;34.35
6506;BME280;3286;49.858;8.768;2022-08-19T11:36:40;98832.84;;;29.67;33.09
6506;BME280;3286;49.858;8.768;2022-08-19T11:39:08;98825.63;;;30.60;31.46
6506;BME280;3286;49.858;8.768;2022-08-19T11:41:35;98824.38;;;30.28;32.14
6506;BME280;3286;49.858;8.768;2022-08-19T11:44:04;98821.22;;;30.83;32.74
6506;BME280;3286;49.858;8.768;2022-08-19T11:46:31;98814.00;;;30.73;31.56
6506;BME280;3286;49.858;8.768;2022-08-19T11:48:59;98808.63;;;31.40;29.38
6506;BME280;3286;49.858;8.768;2022-08-19T11:51:29;98810.03;;;30.17;32.45
6506;BME280;3286;49.858;8.768;2022-08-19T11:53:57;98813.56;;;29.63;32.34
6506;BME280;3286;49.858;8.768;2022-08-19T11:56:25;98809.75;;;28.24;34.49
6506;BME280;3286;49.858;8.768;2022-08-19T11:58:53;98818.06;;;29.04;33.43
6506;BME280;3286;49.858;8.768;2022-08-19T12:01:23;98808.97;;;29.88;32.80
6506;BME280;3286;49.858;8.768;2022-08-19T12:03:51;98796.47;;;30.36;31.85
6506;BME280;3286;49.858;8.768;2022-08-19T12:06:24;98804.97;;;31.11;31.79
6506;BME280;3286;49.858;8.768;2022-08-19T12:08:53;98802.28;;;30.48;30.53
6506;BME280;3286;49.858;8.768;2022-08-19T12:11:28;98795.06;;;30.82;30.58
6506;BME280;3286;49.858;8.768;2022-08-19T12:13:55;98796.38;;;31.04;30.08
6506;BME280;3286;49.858;8.768;2022-08-19T12:16:26;98800.25;;;30.59;32.38
6506;BME280;3286;49.858;8.768;2022-08-19T12:18:53;98795.38;;;30.56;30.82
6506;BME280;3286;49.858;8.768;2022-08-19T12:21:23;98784.53;;;31.61;29.62
6506;BME280;3286;49.858;8.768;2022-08-19T12:23:55;98779.13;;;32.17;28.31
6506;BME280;3286;49.858;8.768;2022-08-19T12:26:24;98790.47;;;31.16;29.13
6506;BME280;3286;49.858;8.768;2022-08-19T12:28:51;98791.81;;;30.36;30.18
6506;BME280;3286;49.858;8.768;2022-08-19T12:31:18;98791.47;;;29.95;31.05
6506;BME280;3286;49.858;8.768;2022-08-19T12:33:47;98794.72;;;29.43;32.75
6506;BME280;3286;49.858;8.768;2022-08-19T12:36:15;98804.81;;;28.97;33.07
6506;BME280;3286;49.858;8.768;2022-08-19T12:38:42;98797.31;;;29.18;33.07
6506;BME280;3286;49.858;8.768;2022-08-19T12:41:11;98800.09;;;28.63;33.46
6506;BME280;3286;49.858;8.768;2022-08-19T12:43:38;98804.56;;;28.94;32.98
6506;BME280;3286;49.858;8.768;2022-08-19T12:46:06;98798.94;;;28.80;32.58
6506;BME280;3286;49.858;8.768;2022-08-19T12:48:33;98797.22;;;29.63;31.63
6506;BME280;3286;49.858;8.768;2022-08-19T12:51:06;98797.66;;;29.76;30.63
6506;BME280;3286;49.858;8.768;2022-08-19T12:53:33;98784.81;;;30.30;30.17
6506;BME280;3286;49.858;8.768;2022-08-19T12:56:01;98787.03;;;30.47;29.74
6506;BME280;3286;49.858;8.768;2022-08-19T12:58:28;98791.53;;;30.38;29.77
6506;BME280;3286;49.858;8.768;2022-08-19T13:00:55;98800.06;;;30.07;29.73
6506;BME280;3286;49.858;8.768;2022-08-19T13:03:22;98792.41;;;30.09;29.04
6506;BME280;3286;49.858;8.768;2022-08-19T13:05:54;98790.09;;;30.46;29.10
6506;BME280;3286;49.858;8.768;2022-08-19T13:08:22;98796.44;;;30.99;28.62
6506;BME280;3286;49.858;8.768;2022-08-19T13:10:49;98813.06;;;29.86;30.80
6506;BME280;3286;49.858;8.768;2022-08-19T13:13:16;98809.25;;;29.57;30.73
6506;BME280;3286;49.858;8.768;2022-08-19T13:15:43;98805.47;;;29.83;30.42
6506;BME280;3286;49.858;8.768;2022-08-19T13:18:10;98809.69;;;29.40;30.14
6506;BME280;3286;49.858;8.768;2022-08-19T13:20:38;98809.31;;;29.52;30.66
6506;BME280;3286;49.858;8.768;2022-08-19T13:23:06;98804.75;;;29.08;30.95
6506;BME280;3286;49.858;8.768;2022-08-19T13:25:35;98814.94;;;29.26;30.78
6506;BME280;3286;49.858;8.768;2022-08-19T13:28:02;98808.34;;;29.32;31.05
6506;BME280;3286;49.858;8.768;2022-08-19T13:30:29;98816.69;;;29.46;30.40